createdAt,value
2023-04-08T00:01:18.923Z,18.90
2023-04-08T00:03:46.330Z,18.15
2023-04-08T00:06:13.718Z,18.23
2023-04-08T00:08:40.800Z,17.08
2023-04-08T00:11:07.919Z,17.70
2023-04-08T00:13:35.356Z,17.80
2023-04-08T00:16:03.240Z,19.17
2023-04-08T00:18:32.703Z,17.58
2023-04-08T00:21:01.981Z,18.50
2023-04-08T00:23:28.880Z,18.60
2023-04-08T00:25:56.020Z,18.15
2023-04-08T00:28:24.055Z,18.95
2023-04-08T00:30:52.752Z,18.15
2023-04-08T00:33:19.763Z,19.20
2023-04-08T00:35:47.285Z,17.80
2023-04-08T00:38:14.240Z,18.38
2023-04-08T00:40:41.347Z,19.17
2023-04-08T00:43:08.345Z,19.38
2023-04-08T00:45:35.352Z,18.77
2023-04-08T00:48:03.766Z,18.85
2023-04-08T00:50:31.289Z,19.38
2023-04-08T00:53:00.923Z,18.48
2023-04-08T00:55:28.044Z,19.50
2023-04-08T00:57:56.266Z,20.88
2023-04-08T01:00:23.536Z,19.42
2023-04-08T01:03:17.118Z,19.55
2023-04-08T01:06:26.333Z,18.63
2023-04-08T01:08:54.995Z,20.55
2023-04-08T01:11:25.857Z,21.20
2023-04-08T01:13:55.544Z,19.25
2023-04-08T01:16:29.105Z,18.08
2023-04-08T01:18:56.683Z,18.27
2023-04-08T01:21:25.824Z,19.15
2023-04-08T01:24:21.798Z,17.23
2023-04-08T01:26:49.913Z,15.00
2023-04-08T01:29:18.486Z,14.75
2023-04-08T01:31:47.396Z,14.50
2023-04-08T01:34:15.895Z,14.20
2023-04-08T01:36:46.941Z,13.82
2023-04-08T01:39:17.477Z,13.32
2023-04-08T01:41:48.958Z,14.18
2023-04-08T01:44:18.864Z,14.65
2023-04-08T01:46:47.456Z,13.18
2023-04-08T01:49:16.126Z,14.30
2023-04-08T01:51:45.368Z,14.40
2023-04-08T01:54:12.297Z,14.48
2023-04-08T01:56:42.578Z,14.93
2023-04-08T01:59:14.291Z,14.32
2023-04-08T02:01:44.601Z,14.85
2023-04-08T02:04:13.631Z,14.80
2023-04-08T02:06:41.340Z,14.73
2023-04-08T02:09:08.651Z,13.82
2023-04-08T02:11:37.438Z,14.50
2023-04-08T02:14:04.476Z,14.48
2023-04-08T02:16:40.065Z,14.18
2023-04-08T02:19:27.907Z,14.93
2023-04-08T02:22:05.475Z,13.88
2023-04-08T02:24:36.102Z,14.82
2023-04-08T02:27:04.106Z,15.05
2023-04-08T02:29:33.924Z,15.18
2023-04-08T02:32:04.164Z,14.75
2023-04-08T02:34:31.712Z,14.98
2023-04-08T02:37:00.682Z,14.68
2023-04-08T02:39:33.778Z,15.90
2023-04-08T02:42:01.312Z,16.42
2023-04-08T02:44:28.260Z,16.48
2023-04-08T02:46:58.137Z,17.20
2023-04-08T02:49:25.575Z,19.05
2023-04-08T02:51:52.724Z,19.55
2023-04-08T02:54:19.655Z,19.38
2023-04-08T02:56:46.668Z,19.15
2023-04-08T02:59:13.651Z,20.35
2023-04-08T03:01:40.884Z,18.70
2023-04-08T03:04:08.006Z,19.80
2023-04-08T03:06:35.257Z,18.15
2023-04-08T03:09:02.162Z,19.30
2023-04-08T03:11:29.198Z,19.38
2023-04-08T03:13:56.161Z,19.38
2023-04-08T03:16:23.366Z,19.25
2023-04-08T03:18:53.869Z,19.35
2023-04-08T03:21:21.001Z,18.75
2023-04-08T03:23:47.894Z,19.70
2023-04-08T03:26:14.908Z,18.15
2023-04-08T03:28:41.781Z,19.50
2023-04-08T03:31:09.043Z,19.42
2023-04-08T03:33:36.104Z,18.77
2023-04-08T03:36:03.268Z,18.75
2023-04-08T03:38:30.201Z,19.17
2023-04-08T03:40:57.377Z,19.67
2023-04-08T03:43:25.629Z,19.85
2023-04-08T03:45:52.701Z,22.20
2023-04-08T03:48:19.636Z,20.52
2023-04-08T03:50:46.507Z,18.58
2023-04-08T03:53:13.508Z,19.25
2023-04-08T03:55:43.342Z,18.55
2023-04-08T03:58:10.568Z,18.52
2023-04-08T04:00:37.478Z,19.67
2023-04-08T04:03:04.618Z,20.02
2023-04-08T04:05:31.642Z,22.35
2023-04-08T04:07:58.768Z,20.70
2023-04-08T04:10:25.760Z,19.27
2023-04-08T04:12:52.845Z,18.33
2023-04-08T04:15:19.828Z,18.77
2023-04-08T04:17:50.826Z,19.70
2023-04-08T04:20:18.626Z,19.95
2023-04-08T04:22:45.745Z,20.63
2023-04-08T04:25:13.594Z,18.05
2023-04-08T04:27:40.595Z,19.55
2023-04-08T04:30:09.496Z,20.92
2023-04-08T04:32:36.846Z,18.88
2023-04-08T04:35:04.544Z,18.48
2023-04-08T04:37:31.516Z,18.63
2023-04-08T04:39:58.605Z,18.38
2023-04-08T04:42:25.532Z,18.90
2023-04-08T04:44:52.406Z,19.83
2023-04-08T04:47:19.935Z,19.40
2023-04-08T04:49:49.224Z,19.00
2023-04-08T04:52:16.256Z,18.83
2023-04-08T04:54:43.608Z,19.05
2023-04-08T04:57:11.422Z,18.38
2023-04-08T04:59:38.526Z,19.08
2023-04-08T05:02:05.742Z,18.30
2023-04-08T05:04:32.881Z,17.52
2023-04-08T05:07:00.581Z,17.20
2023-04-08T05:09:27.435Z,17.88
2023-04-08T05:11:54.503Z,16.50
2023-04-08T05:14:21.587Z,17.85
2023-04-08T05:16:48.636Z,16.88
2023-04-08T05:19:16.582Z,17.88
2023-04-08T05:21:44.289Z,16.92
2023-04-08T05:24:11.123Z,17.08
2023-04-08T05:26:38.135Z,15.48
2023-04-08T05:29:05.136Z,16.33
2023-04-08T05:31:32.138Z,15.23
2023-04-08T05:33:59.199Z,15.88
2023-04-08T05:36:27.444Z,15.27
2023-04-08T05:38:54.347Z,14.73
2023-04-08T05:41:21.478Z,16.17
2023-04-08T05:43:48.381Z,14.80
2023-04-08T05:46:15.630Z,16.67
2023-04-08T05:48:45.527Z,17.20
2023-04-08T05:51:16.548Z,15.25
2023-04-08T05:53:46.514Z,15.95
2023-04-08T05:56:13.586Z,15.95
2023-04-08T05:58:40.547Z,16.08
2023-04-08T06:01:07.519Z,16.42
2023-04-08T06:03:34.434Z,15.18
2023-04-08T06:06:01.684Z,14.38
2023-04-08T06:08:28.729Z,14.30
2023-04-08T06:10:55.818Z,14.27
2023-04-08T06:13:22.953Z,14.30
2023-04-08T06:15:50.336Z,13.80
2023-04-08T06:18:18.051Z,13.82
2023-04-08T06:20:45.165Z,13.60
2023-04-08T06:23:12.591Z,14.45
2023-04-08T06:25:39.533Z,12.88
2023-04-08T06:28:08.872Z,12.93
2023-04-08T06:33:03.437Z,13.48
2023-04-08T06:35:36.732Z,14.05
2023-04-08T06:38:04.307Z,12.02
2023-04-08T06:40:31.255Z,13.15
2023-04-08T06:42:58.144Z,13.18
2023-04-08T06:45:43.883Z,12.52
2023-04-08T06:48:13.565Z,13.20
2023-04-08T06:50:41.002Z,12.75
2023-04-08T06:53:07.817Z,12.63
2023-04-08T06:55:34.681Z,13.68
2023-04-08T06:58:02.375Z,12.80
2023-04-08T07:00:29.324Z,14.30
2023-04-08T07:02:56.424Z,14.45
2023-04-08T07:05:23.401Z,14.23
2023-04-08T07:07:50.636Z,13.18
2023-04-08T07:10:17.752Z,13.48
2023-04-08T07:12:44.629Z,13.02
2023-04-08T07:15:11.654Z,14.05
2023-04-08T07:17:39.622Z,13.38
2023-04-08T07:20:07.336Z,14.05
2023-04-08T07:22:34.327Z,12.55
2023-04-08T07:25:01.457Z,15.50
2023-04-08T07:27:29.768Z,14.50
2023-04-08T07:29:56.805Z,15.10
2023-04-08T07:32:23.902Z,15.30
2023-04-08T07:34:51.028Z,13.63
2023-04-08T07:37:18.288Z,12.82
2023-04-08T07:39:45.581Z,14.52
2023-04-08T07:42:12.421Z,13.52
2023-04-08T07:44:39.734Z,13.60
2023-04-08T07:47:06.644Z,13.70
2023-04-08T07:49:33.636Z,13.43
2023-04-08T07:52:00.855Z,13.15
2023-04-08T07:54:46.570Z,13.05
2023-04-08T07:57:13.808Z,12.88
2023-04-08T07:59:41.327Z,13.82
2023-04-08T08:02:08.365Z,12.82
2023-04-08T08:04:35.865Z,14.15
2023-04-08T08:07:03.101Z,13.25
2023-04-08T08:09:32.128Z,13.77
2023-04-08T08:11:59.393Z,14.13
2023-04-08T08:14:26.929Z,13.18
2023-04-08T08:16:54.409Z,13.10
2023-04-08T08:19:21.639Z,13.45
2023-04-08T08:21:49.296Z,13.15
2023-04-08T08:24:19.530Z,14.70
2023-04-08T08:26:49.193Z,12.90
2023-04-08T08:29:16.349Z,12.27
2023-04-08T08:31:43.625Z,13.00
2023-04-08T08:34:10.853Z,12.68
2023-04-08T08:36:40.694Z,14.95
2023-04-08T08:39:08.821Z,12.45
2023-04-08T08:41:39.855Z,12.50
2023-04-08T08:44:08.744Z,13.02
2023-04-08T08:46:35.970Z,14.30
2023-04-08T08:49:03.284Z,14.77
2023-04-08T08:51:30.391Z,12.88
2023-04-08T08:53:57.481Z,13.52
2023-04-08T08:56:24.370Z,13.45
2023-04-08T08:58:51.665Z,13.27
2023-04-08T09:01:33.945Z,14.27
2023-04-08T09:04:08.516Z,13.50
2023-04-08T09:06:45.470Z,14.80
2023-04-08T09:09:12.846Z,14.35
2023-04-08T09:11:41.707Z,14.38
2023-04-08T09:14:25.889Z,14.55
2023-04-08T09:16:56.510Z,14.68
2023-04-08T09:19:23.755Z,15.27
2023-04-08T09:22:08.858Z,14.45
2023-04-08T09:24:37.338Z,14.60
2023-04-08T09:27:05.852Z,14.17
2023-04-08T09:29:37.375Z,13.50
2023-04-08T09:32:06.771Z,14.57
2023-04-08T09:34:34.595Z,13.45
2023-04-08T09:37:02.269Z,11.52
2023-04-08T09:39:29.241Z,10.88
2023-04-08T09:42:01.489Z,11.45
2023-04-08T09:44:30.520Z,12.05
2023-04-08T09:47:16.644Z,10.50
2023-04-08T09:49:50.089Z,12.23
2023-04-08T09:52:44.169Z,12.65
2023-04-08T09:55:14.483Z,13.20
2023-04-08T09:57:44.063Z,12.90
2023-04-08T10:02:58.996Z,11.85
2023-04-08T10:05:27.450Z,12.43
2023-04-08T10:07:56.285Z,12.80
2023-04-08T10:10:26.915Z,12.05
2023-04-08T10:12:54.422Z,12.65
2023-04-08T10:15:28.968Z,13.23
2023-04-08T10:18:20.476Z,11.35
2023-04-08T10:20:49.366Z,12.18
2023-04-08T10:23:18.204Z,12.23
2023-04-08T10:25:48.269Z,11.73
2023-04-08T10:28:17.681Z,12.18
2023-04-08T10:31:30.546Z,12.98
2023-04-08T10:34:19.193Z,12.13
2023-04-08T10:36:46.901Z,11.40
2023-04-08T10:39:15.990Z,11.45
2023-04-08T10:41:44.288Z,11.73
2023-04-08T10:44:21.056Z,11.90
2023-04-08T10:46:49.894Z,12.02
2023-04-08T10:49:19.305Z,11.75
2023-04-08T10:51:49.266Z,12.13
2023-04-08T10:54:18.196Z,11.43
2023-04-08T10:56:53.931Z,12.32
2023-04-08T10:59:29.347Z,12.30
2023-04-08T11:01:56.375Z,12.00
2023-04-08T11:04:23.967Z,11.60
2023-04-08T11:06:51.547Z,11.30
2023-04-08T11:09:18.739Z,12.73
2023-04-08T11:11:46.762Z,12.27
2023-04-08T11:14:14.194Z,11.18
2023-04-08T11:16:41.312Z,11.18
2023-04-08T11:19:09.000Z,11.88
2023-04-08T11:21:37.559Z,10.77
2023-04-08T11:24:12.024Z,10.77
2023-04-08T11:26:39.677Z,10.30
2023-04-08T11:29:12.786Z,9.55
2023-04-08T11:31:44.141Z,9.68
2023-04-08T11:34:11.462Z,10.15
2023-04-08T11:36:41.914Z,9.32
2023-04-08T11:39:10.759Z,10.40
2023-04-08T11:41:39.593Z,9.52
2023-04-08T11:44:07.268Z,10.75
2023-04-08T11:46:36.660Z,9.18
2023-04-08T11:51:34.286Z,8.15
2023-04-08T11:54:06.611Z,8.20
2023-04-08T11:56:47.127Z,9.10
2023-04-08T11:59:14.323Z,8.35
2023-04-08T12:01:41.437Z,8.63
2023-04-08T12:04:10.666Z,8.65
2023-04-08T12:06:37.940Z,8.88
2023-04-08T12:09:04.949Z,9.13
2023-04-08T12:11:32.117Z,10.20
2023-04-08T12:13:59.697Z,9.48
2023-04-08T12:16:27.390Z,10.02
2023-04-08T12:18:57.558Z,8.82
2023-04-08T12:21:24.820Z,9.82
2023-04-08T12:23:52.434Z,9.27
2023-04-08T12:26:20.068Z,8.57
2023-04-08T12:28:47.248Z,8.20
2023-04-08T12:31:17.821Z,8.50
2023-04-08T12:33:44.859Z,7.88
2023-04-08T12:36:13.652Z,8.93
2023-04-08T12:38:40.909Z,8.82
2023-04-08T12:41:07.920Z,8.30
2023-04-08T12:43:35.380Z,8.18
2023-04-08T12:46:03.218Z,7.78
2023-04-08T12:48:30.261Z,7.55
2023-04-08T12:50:59.045Z,7.72
2023-04-08T12:53:26.240Z,8.05
2023-04-08T12:55:57.173Z,6.88
2023-04-08T12:58:25.838Z,6.78
2023-04-08T13:00:52.823Z,7.67
2023-04-08T13:03:20.259Z,7.22
2023-04-08T13:05:47.433Z,6.80
2023-04-08T13:08:20.915Z,7.38
2023-04-08T13:10:48.405Z,7.25
2023-04-08T13:13:16.091Z,6.90
2023-04-08T13:15:44.134Z,6.90
2023-04-08T13:18:14.532Z,7.63
2023-04-08T13:20:44.728Z,7.53
2023-04-08T13:23:12.186Z,8.38
2023-04-08T13:25:39.483Z,8.75
2023-04-08T13:28:06.841Z,7.53
2023-04-08T13:30:33.832Z,8.30
2023-04-08T13:33:02.064Z,8.15
2023-04-08T13:35:29.204Z,8.52
2023-04-08T13:37:56.215Z,7.88
2023-04-08T13:40:23.203Z,8.70
2023-04-08T13:42:50.217Z,8.73
2023-04-08T13:45:17.254Z,9.15
2023-04-08T13:47:44.426Z,7.43
2023-04-08T13:50:11.769Z,7.22
2023-04-08T13:52:39.167Z,8.18
2023-04-08T13:55:06.491Z,7.68
2023-04-08T13:57:38.276Z,7.78
2023-04-08T14:00:06.111Z,7.50
2023-04-08T14:02:37.977Z,8.52
2023-04-08T14:05:06.541Z,8.07
2023-04-08T14:07:33.638Z,8.50
2023-04-08T14:10:01.043Z,8.15
2023-04-08T14:12:30.947Z,8.82
2023-04-08T14:14:58.077Z,8.32
2023-04-08T14:17:25.178Z,7.72
2023-04-08T14:19:52.878Z,8.02
2023-04-08T14:22:23.290Z,8.55
2023-04-08T14:24:50.613Z,8.90
2023-04-08T14:27:17.636Z,8.18
2023-04-08T14:29:44.749Z,8.73
2023-04-08T14:32:12.432Z,9.10
2023-04-08T14:34:45.140Z,9.10
2023-04-08T14:37:13.520Z,9.50
2023-04-08T14:39:41.002Z,10.38
2023-04-08T14:42:07.988Z,9.27
2023-04-08T14:44:35.058Z,10.18
2023-04-08T14:47:02.165Z,9.40
2023-04-08T14:49:29.307Z,9.80
2023-04-08T14:52:15.002Z,8.95
2023-04-08T14:54:42.906Z,8.90
2023-04-08T14:57:10.659Z,8.00
2023-04-08T14:59:39.674Z,8.38
2023-04-08T15:02:06.673Z,9.43
2023-04-08T15:04:42.014Z,7.75
2023-04-08T15:07:09.317Z,8.10
2023-04-08T15:09:36.177Z,8.52
2023-04-08T15:12:03.355Z,8.10
2023-04-08T15:14:39.240Z,8.00
2023-04-08T15:17:06.584Z,7.95
2023-04-08T15:19:33.812Z,8.23
2023-04-08T15:22:01.882Z,8.30
2023-04-08T15:24:28.936Z,8.40
2023-04-08T15:26:56.852Z,8.48
2023-04-08T15:29:24.588Z,8.52
2023-04-08T15:31:52.701Z,9.25
2023-04-08T15:34:19.958Z,8.77
2023-04-08T15:36:48.360Z,8.43
2023-04-08T15:39:15.728Z,8.40
2023-04-08T15:41:42.838Z,8.57
2023-04-08T15:44:09.687Z,8.80
2023-04-08T15:46:37.801Z,9.10
2023-04-08T15:49:05.224Z,8.88
2023-04-08T15:51:34.422Z,9.48
2023-04-08T15:54:02.453Z,8.80
2023-04-08T15:56:29.760Z,9.98
2023-04-08T15:58:57.568Z,9.82
2023-04-08T16:01:24.655Z,9.57
2023-04-08T16:03:52.425Z,10.40
2023-04-08T16:06:20.294Z,9.82
2023-04-08T16:08:48.193Z,10.55
2023-04-08T16:11:18.381Z,10.27
2023-04-08T16:13:45.416Z,10.82
2023-04-08T16:16:12.555Z,11.63
2023-04-08T16:18:41.519Z,11.55
2023-04-08T16:21:11.531Z,11.82
2023-04-08T16:23:39.269Z,12.13
2023-04-08T16:26:08.106Z,12.25
2023-04-08T16:28:35.645Z,12.23
2023-04-08T16:31:04.376Z,13.65
2023-04-08T16:33:32.071Z,12.23
2023-04-08T16:36:02.827Z,11.95
2023-04-08T16:38:31.472Z,11.40
2023-04-08T16:40:58.788Z,11.50
2023-04-08T16:43:26.099Z,11.57
2023-04-08T16:45:55.756Z,12.05
2023-04-08T16:48:23.324Z,12.05
2023-04-08T16:50:50.511Z,11.52
2023-04-08T16:53:17.551Z,10.93
2023-04-08T16:55:47.847Z,11.98
2023-04-08T16:58:14.940Z,14.32
2023-04-08T17:00:44.665Z,14.45
2023-04-08T17:03:12.359Z,17.80
2023-04-08T17:05:39.435Z,22.05
2023-04-08T17:08:06.663Z,17.90
2023-04-08T17:10:33.581Z,16.95
2023-04-08T17:13:00.591Z,15.32
2023-04-08T17:15:27.578Z,15.32
2023-04-08T17:17:54.666Z,18.92
2023-04-08T17:20:22.153Z,16.48
2023-04-08T17:22:49.225Z,16.70
2023-04-08T17:25:16.399Z,20.35
2023-04-08T17:27:43.419Z,17.40
2023-04-08T17:30:11.648Z,16.38
2023-04-08T17:32:38.973Z,16.50
2023-04-08T17:35:06.400Z,16.65
2023-04-08T17:37:33.616Z,16.85
2023-04-08T17:40:01.770Z,15.40
2023-04-08T17:42:29.949Z,16.60
2023-04-08T17:44:59.190Z,17.42
2023-04-08T17:47:44.945Z,17.65
2023-04-08T17:50:12.228Z,16.17
2023-04-08T17:52:39.185Z,17.42
2023-04-08T17:55:08.014Z,19.20
2023-04-08T17:57:34.989Z,16.80
2023-04-08T18:00:02.548Z,21.30
2023-04-08T18:02:37.112Z,20.30
2023-04-08T18:05:07.487Z,16.42
2023-04-08T18:07:35.971Z,14.40
2023-04-08T18:10:03.636Z,13.68
2023-04-08T18:12:36.593Z,14.75
2023-04-08T18:15:05.672Z,15.27
2023-04-08T18:17:34.631Z,14.48
2023-04-08T18:20:01.743Z,15.00
2023-04-08T18:22:29.846Z,15.65
2023-04-08T18:25:01.101Z,15.95
2023-04-08T18:27:30.916Z,15.75
2023-04-08T18:30:00.711Z,16.88
2023-04-08T18:32:27.773Z,16.98
2023-04-08T18:34:55.113Z,16.13
2023-04-08T18:37:30.402Z,16.85
2023-04-08T18:39:58.936Z,16.70
2023-04-08T18:42:30.667Z,16.80
2023-04-08T18:44:58.242Z,18.33
2023-04-08T18:47:25.227Z,18.88
2023-04-08T18:49:52.613Z,18.15
2023-04-08T18:52:19.544Z,18.90
2023-04-08T18:54:49.004Z,22.00
2023-04-08T18:57:16.421Z,19.30
2023-04-08T18:59:51.915Z,19.95
2023-04-08T19:02:19.037Z,18.73
2023-04-08T19:04:45.929Z,18.70
2023-04-08T19:07:13.084Z,17.08
2023-04-08T19:09:40.165Z,19.08
2023-04-08T19:12:07.286Z,19.02
2023-04-08T19:14:34.283Z,18.08
2023-04-08T19:17:01.414Z,18.38
2023-04-08T19:19:28.464Z,17.60
2023-04-08T19:21:55.493Z,16.67
2023-04-08T19:24:22.569Z,17.02
2023-04-08T19:26:50.889Z,18.63
2023-04-08T19:29:19.542Z,17.27
2023-04-08T19:31:50.495Z,18.63
2023-04-08T19:34:19.896Z,19.50
2023-04-08T19:36:47.819Z,18.05
2023-04-08T19:39:19.930Z,18.55
2023-04-08T19:41:50.747Z,19.55
2023-04-08T19:44:17.753Z,21.58
2023-04-08T19:46:51.298Z,21.55
2023-04-08T19:49:20.106Z,22.65
2023-04-08T19:51:47.160Z,22.27
2023-04-08T19:54:14.509Z,21.75
2023-04-08T19:56:41.560Z,20.20
2023-04-08T19:59:08.673Z,21.15
2023-04-08T20:01:36.765Z,21.35
2023-04-08T20:04:03.811Z,21.13
2023-04-08T20:06:33.471Z,22.30
2023-04-08T20:09:05.577Z,21.40
2023-04-08T20:11:35.769Z,21.13
2023-04-08T20:14:04.359Z,21.92
2023-04-08T20:16:32.225Z,23.25
2023-04-08T20:19:01.083Z,22.30
2023-04-08T20:21:28.853Z,23.85
2023-04-08T20:23:57.873Z,21.90
2023-04-08T20:26:24.812Z,22.42
2023-04-08T20:28:51.956Z,19.08
2023-04-08T20:31:19.658Z,19.15
2023-04-08T20:33:46.844Z,18.73
2023-04-08T20:36:14.150Z,18.77
2023-04-08T20:38:43.736Z,17.58
2023-04-08T20:43:38.003Z,18.95
2023-04-08T20:46:05.203Z,16.98
2023-04-08T20:48:33.439Z,17.30
2023-04-08T20:51:00.336Z,17.90
2023-04-08T20:53:28.540Z,18.17
2023-04-08T20:55:55.828Z,18.00
2023-04-08T20:58:22.926Z,18.02
2023-04-08T21:00:49.895Z,18.90
2023-04-08T21:03:17.294Z,18.25
2023-04-08T21:05:44.476Z,17.98
2023-04-08T21:08:11.534Z,17.63
2023-04-08T21:10:42.580Z,17.05
2023-04-08T21:13:09.713Z,17.70
2023-04-08T21:15:36.743Z,24.42
2023-04-08T21:18:07.585Z,14.95
2023-04-08T21:20:34.783Z,14.75
2023-04-08T21:23:01.813Z,13.85
2023-04-08T21:25:31.580Z,15.18
2023-04-08T21:27:58.588Z,13.05
2023-04-08T21:30:33.565Z,14.48
2023-04-08T21:33:00.465Z,13.73
2023-04-08T21:35:27.647Z,13.73
2023-04-08T21:37:55.074Z,14.15
2023-04-08T21:40:22.238Z,14.75
2023-04-08T21:42:51.155Z,13.60
2023-04-08T21:45:18.536Z,15.32
2023-04-08T21:47:45.705Z,15.25
2023-04-08T21:50:12.696Z,14.68
2023-04-08T21:52:41.548Z,14.00
2023-04-08T21:55:10.455Z,14.77
2023-04-08T21:57:37.865Z,13.80
2023-04-08T22:00:13.940Z,14.90
2023-04-08T22:05:12.742Z,13.82
2023-04-08T22:07:42.720Z,15.30
2023-04-08T22:10:10.335Z,15.30
2023-04-08T22:12:37.349Z,15.52
2023-04-08T22:15:04.922Z,13.85
2023-04-08T22:17:32.397Z,13.48
2023-04-08T22:19:59.389Z,12.48
2023-04-08T22:22:27.213Z,14.02
2023-04-08T22:24:54.541Z,12.32
2023-04-08T22:27:21.667Z,12.40
2023-04-08T22:29:48.916Z,12.75
2023-04-08T22:32:18.392Z,13.60
2023-04-08T22:34:45.765Z,13.50
2023-04-08T22:37:16.276Z,12.50
2023-04-08T22:39:43.686Z,13.05
2023-04-08T22:42:10.525Z,12.95
2023-04-08T22:44:37.545Z,12.75
2023-04-08T22:47:04.473Z,13.10
2023-04-08T22:49:35.797Z,13.70
2023-04-08T22:52:03.190Z,13.55
2023-04-08T22:54:32.570Z,13.18
2023-04-08T22:56:59.617Z,12.88
2023-04-08T22:59:27.145Z,13.30
2023-04-08T23:01:54.932Z,13.77
2023-04-08T23:04:24.291Z,12.80
2023-04-08T23:06:51.358Z,13.05
2023-04-08T23:09:21.928Z,14.13
2023-04-08T23:11:49.077Z,13.32
2023-04-08T23:14:16.298Z,13.65
2023-04-08T23:16:43.308Z,13.80
2023-04-08T23:19:11.730Z,14.63
2023-04-08T23:21:39.229Z,13.68
2023-04-08T23:24:06.814Z,14.35
2023-04-08T23:26:34.609Z,13.48
2023-04-08T23:31:30.507Z,12.57
2023-04-08T23:33:57.459Z,14.23
2023-04-08T23:36:24.699Z,13.65
2023-04-08T23:38:52.191Z,12.77
2023-04-08T23:41:21.345Z,13.15
2023-04-08T23:43:57.178Z,13.18
2023-04-08T23:46:24.307Z,11.52
2023-04-08T23:48:51.786Z,12.60
2023-04-08T23:51:19.027Z,11.13
2023-04-08T23:53:47.370Z,12.52
2023-04-08T23:56:14.459Z,11.32
2023-04-08T23:58:41.848Z,10.40
